Terminal Aerodrome Forecast
Issued by NWS

Home | Current Version | Previous Version | Text Only | Print | Product List | Glossary On
Versions: 1 2 3 4 5 6 7 8 9 10 11 12 13 14 15 16 17 18 19 20 21
000
FTUS43 KSGF 252010 AAA
TAFJLN
TAF AMD
KJLN 252010Z 2520/2618 36010KT P6SM VCSH SCT025 OVC050
      TEMPO 2520/2524 6SM -SHRA OVC025
     FM260000 35006KT P6SM VCSH SCT025 BKN040
     FM260800 35005KT P6SM SCT200=

USA.gov is the U.S. government's official web portal to all federal, state and local government web resources and services.